Main page
Satellite images 10-day forecastsClimateMarine weather Cyclones Lightning AirportsFAQ Newsletter About
Weather : Europe Africa North America South America Asia Australia-Oceania Others
Languages Contact

Gloucester, England

Gloucestershire Airport

latitude: 51-54N, longitude: 002-10W, elevation: 29 m


METAR: EGBJ 061350Z 22011KT 180V250 9999 FEW040 13/05 Q1031
TAF: EGBJ 061100Z 0612/0620 21012KT 9999 FEW020 SCT030 PROB30 TEMPO 0612/0620 21015G25KT

Time: 14:05 (14:05 UTC)

Current weather observation

The report was made 15 minutes ago, at 13:50 UTC
Wind 11 kt from the Southwest, varying between South and West/Southwest
Temperature 13°C
Humidity 58%
Pressure 1031 hPa
Visibility 10 km or more
Few clouds at a height of 4000 ft

Change units

Forecast

The report was made 3 hours and 5 minutes ago, at 11:00 UTC
Forecast valid from 06 at 12 UTC to 06 at 20 UTC
Wind 12 kt from the South/Southwest
Visibility 10 km or more
Few clouds at a height of 2000 ft
Scattered clouds at a height of 3000 ft
Probability 30% :
Temporary
from 06 at 12 UTC to 06 at 20 UTC
Wind 15 kt from the South/Southwest with gusts up to 25 kt
The information on this site is subject to a disclaimer
Weather : Europe Africa North America South America Asia Australia-Oceania Others
Satellite images 10-day forecastsClimateMarine weather Cyclones Lightning AirportsFAQ Languages Contact Newsletter About